Time;durP1;ratioP1;P1;durP2;ratioP2;P2;SDS_P1;SDS_P2;PMS_P1;PMS_P2;Temp;Humidity;BMP_temperature;BMP_pressure;BME280_temperature;BME280_humidity;BME280_pressure;Samples;Min_cycle;Max_cycle;Signal;HPM_P1;HPM_P2
2021/03/28 00:02:12;;;;;;;11.85;3.50;;;8.20;57.40;;;7.09;49.70;99660.09;4998983;28;20426;-81
2021/03/28 00:04:52;;;;;;;11.45;3.10;;;8.10;57.50;;;7.04;49.76;99665.06;5000189;28;20418;-81
2021/03/28 00:07:22;;;;;;;11.75;3.88;;;8.10;57.50;;;7.00;49.83;99663.75;4999246;28;20426;-81
2021/03/28 00:09:58;;;;;;;11.57;3.20;;;8.00;57.70;;;6.93;50.08;99662.78;4998393;28;20476;-81
2021/03/28 00:12:31;;;;;;;11.38;3.72;;;8.00;58.00;;;6.88;50.31;99665.13;4999242;28;20550;-81
2021/03/28 00:15:16;;;;;;;16.37;3.53;;;8.00;58.00;;;6.88;50.31;99662.50;4999070;28;20518;-80
2021/03/28 00:17:47;;;;;;;11.57;3.27;;;7.90;58.10;;;6.80;50.38;99668.63;4998292;28;20433;-81
2021/03/28 00:20:30;;;;;;;12.40;3.55;;;7.90;58.20;;;6.80;50.53;99666.00;4998519;28;20409;-81
2021/03/28 00:23:15;;;;;;;11.38;3.70;;;7.90;58.20;;;6.75;50.59;99664.88;4997209;28;20513;-81
2021/03/28 00:25:53;;;;;;;9.73;3.00;;;7.80;58.40;;;6.74;50.52;99664.03;4997267;28;20495;-82
2021/03/28 00:28:36;;;;;;;9.02;3.40;;;7.80;58.40;;;6.67;50.88;99665.72;4997885;28;20407;-79
2021/03/28 00:31:20;;;;;;;9.90;3.38;;;7.80;58.50;;;6.55;51.08;99659.97;4999217;28;20426;-80
2021/03/28 00:34:04;;;;;;;12.13;3.42;;;7.70;58.80;;;6.53;51.29;99666.44;4997802;28;20485;-80
2021/03/28 00:36:37;;;;;;;10.95;3.00;;;7.60;59.10;;;6.44;51.49;99665.63;4998934;28;20696;-81
2021/03/28 00:39:10;;;;;;;7.63;3.30;;;7.50;59.30;;;6.46;51.67;99668.09;4999440;28;20423;-81
2021/03/28 00:41:56;;;;;;;9.07;3.30;;;7.50;59.60;;;6.42;51.81;99669.41;5001837;28;20444;-81
2021/03/28 00:44:24;;;;;;;11.70;4.13;;;7.50;59.70;;;6.46;51.72;99665.47;4999739;28;20410;-82
2021/03/28 00:47:06;;;;;;;16.93;4.23;;;7.50;59.80;;;6.55;51.32;99669.69;4999803;28;20500;-83
2021/03/28 00:49:37;;;;;;;14.27;4.10;;;7.60;60.20;;;6.52;51.44;99670.03;5001283;28;20501;-81
2021/03/28 00:52:21;;;;;;;13.32;4.38;;;7.60;59.40;;;6.46;51.75;99666.28;5002899;28;20525;-83
2021/03/28 00:54:51;;;;;;;14.82;4.10;;;7.50;59.90;;;6.57;51.31;99662.44;5002708;28;20441;-82
2021/03/28 00:57:29;;;;;;;12.53;4.77;;;7.60;59.50;;;6.55;51.59;99664.44;4999666;28;20929;-82
2021/03/28 01:00:12;;;;;;;14.18;3.72;;;7.60;59.50;;;6.58;51.46;99661.47;4999557;28;20454;-81
2021/03/28 01:02:55;;;;;;;15.95;4.45;;;7.60;59.50;;;6.68;50.93;99663.91;4998462;28;20418;-81
2021/03/28 01:05:43;;;;;;;11.15;3.78;;;7.70;59.40;;;6.56;51.45;99658.19;5002020;28;20417;-81
2021/03/28 01:08:19;;;;;;;14.90;3.72;;;7.70;59.40;;;6.43;51.99;99661.34;5003028;28;20528;-81
2021/03/28 01:11:13;;;;;;;11.93;3.58;;;7.50;59.90;;;6.57;51.62;99660.66;5001397;28;20419;-80
2021/03/28 01:14:26;;;;;;;12.82;4.38;;;7.50;60.40;;;6.56;51.61;99656.38;4999580;28;20447;-82
2021/03/28 01:17:35;;;;;;;12.55;3.55;;;7.60;59.70;;;6.66;51.24;99658.81;4999733;28;20430;-81
2021/03/28 01:20:33;;;;;;;11.10;3.75;;;7.70;59.50;;;6.60;51.44;99665.59;4985037;28;20410;-80
2021/03/28 01:23:15;;;;;;;9.82;3.70;;;7.60;59.60;;;6.60;51.41;99662.94;5001986;28;20449;-81
2021/03/28 01:26:21;;;;;;;9.02;3.20;;;7.70;59.40;;;6.59;51.64;99658.66;5003627;28;20415;-80
2021/03/28 01:28:55;;;;;;;10.27;3.47;;;7.60;59.30;;;6.57;51.30;99652.75;5004355;28;20434;-80
2021/03/28 01:31:35;;;;;;;12.52;3.50;;;7.60;59.40;;;6.54;51.51;99655.72;5005971;28;20475;-80
2021/03/28 01:34:20;;;;;;;9.25;3.83;;;7.70;59.50;;;6.47;51.52;99646.03;5006788;28;20499;-80
2021/03/28 01:36:52;;;;;;;9.48;3.22;;;7.60;59.60;;;6.55;51.41;99643.38;5005012;28;20415;-80
2021/03/28 01:39:24;;;;;;;13.98;3.17;;;7.60;59.60;;;6.52;51.66;99646.38;5006531;28;20521;-79
2021/03/28 01:42:00;;;;;;;15.27;3.35;;;7.60;59.50;;;6.31;52.23;99657.44;4987911;28;20435;-80
2021/03/28 01:44:42;;;;;;;9.35;3.00;;;7.40;59.90;;;6.29;52.05;99653.31;5000670;28;20422;-79
2021/03/28 01:47:31;;;;;;;12.93;3.75;;;7.40;60.30;;;6.22;52.41;99654.00;5000344;28;20410;-80
2021/03/28 01:50:32;;;;;;;10.60;3.80;;;7.30;60.40;;;6.16;52.63;99665.16;4999139;28;20418;-80
2021/03/28 01:53:19;;;;;;;14.27;3.22;;;7.30;60.70;;;6.12;52.78;99653.34;5004248;28;20418;-80
2021/03/28 01:55:56;;;;;;;11.43;3.42;;;7.20;60.90;;;6.15;52.54;99657.47;5001684;28;20706;-81
2021/03/28 01:58:34;;;;;;;9.13;3.30;;;7.20;61.00;;;6.09;52.81;99652.88;4998838;28;20539;-82
2021/03/28 02:01:36;;;;;;;9.97;3.20;;;7.20;61.00;;;5.98;52.97;99655.84;4998760;28;20423;-81
2021/03/28 02:04:15;;;;;;;9.00;3.00;;;7.10;61.10;;;5.95;53.06;99659.59;5000019;28;20522;-82
2021/03/28 02:07:05;;;;;;;12.10;3.40;;;7.10;61.50;;;5.94;53.26;99671.09;5004368;28;20406;-80
2021/03/28 02:09:43;;;;;;;9.65;3.30;;;7.00;61.70;;;5.92;53.26;99669.66;5004112;28;20422;-81
2021/03/28 02:12:17;;;;;;;13.43;4.18;;;7.00;61.70;;;5.83;53.44;99668.78;4982762;28;20441;-81
2021/03/28 02:15:10;;;;;;;11.05;3.40;;;7.00;62.00;;;5.84;53.52;99657.31;4998896;28;20430;-80
2021/03/28 02:17:54;;;;;;;11.00;3.50;;;7.00;62.20;;;5.83;53.73;99659.09;4998820;28;20438;-81
2021/03/28 02:20:42;;;;;;;11.15;3.05;;;6.90;62.90;;;5.87;53.65;99664.00;4998781;28;20409;-80
2021/03/28 02:23:20;;;;;;;11.05;3.30;;;7.00;62.30;;;5.82;53.73;99661.91;4999066;28;20519;-80
2021/03/28 02:25:56;;;;;;;10.57;3.88;;;6.90;62.30;;;5.87;53.79;99658.75;4999520;28;20407;-79
2021/03/28 02:28:47;;;;;;;12.98;3.72;;;6.90;62.40;;;5.87;53.65;99661.38;4998324;28;20426;-79
2021/03/28 02:31:29;;;;;;;16.17;3.95;;;7.00;62.30;;;5.86;53.75;99663.22;4999308;28;20403;-80
2021/03/28 02:34:12;;;;;;;9.13;3.15;;;6.90;62.50;;;5.88;53.71;99661.25;4981581;28;20574;-80
2021/03/28 02:36:43;;;;;;;9.25;3.17;;;7.00;62.50;;;5.87;53.90;99658.75;4998102;28;20411;-81
2021/03/28 02:39:28;;;;;;;13.82;4.07;;;6.90;62.50;;;5.88;53.74;99657.81;4979607;28;20429;-80
2021/03/28 02:42:10;;;;;;;9.88;3.10;;;6.90;62.40;;;5.89;53.71;99662.91;4997619;28;20678;-80
2021/03/28 02:45:08;;;;;;;11.60;3.08;;;7.00;62.60;;;5.93;53.38;99658.16;4994522;28;20658;-80
2021/03/28 02:48:17;;;;;;;8.82;3.53;;;7.00;62.20;;;5.84;53.67;99666.00;4996102;28;20506;-80
2021/03/28 02:51:35;;;;;;;12.75;3.45;;;6.90;62.30;;;5.87;53.85;99664.00;4996243;28;20423;-79
2021/03/28 02:55:04;;;;;;;8.45;3.58;;;6.90;62.40;;;5.89;53.77;99670.78;5000117;28;20434;-80
2021/03/28 02:57:44;;;;;;;12.57;3.40;;;7.00;62.70;;;5.95;53.62;99659.59;4952888;28;20453;-79
2021/03/28 03:00:33;;;;;;;9.87;3.23;;;7.00;62.50;;;6.04;53.54;99660.44;5004003;28;20457;-81
2021/03/28 03:03:41;;;;;;;11.13;3.20;;;7.10;62.30;;;6.02;53.63;99659.75;4989488;28;20506;-81
2021/03/28 03:06:45;;;;;;;9.93;3.10;;;7.10;62.20;;;6.02;53.42;99659.75;4999084;28;20406;-80
2021/03/28 03:09:22;;;;;;;10.57;3.50;;;7.10;62.00;;;6.13;53.19;99660.25;4998529;28;20434;-82
2021/03/28 03:12:27;;;;;;;13.38;3.72;;;7.10;62.70;;;6.19;52.83;99651.69;4980771;28;20418;-79
2021/03/28 03:15:23;;;;;;;8.40;2.80;;;7.20;61.50;;;6.24;52.80;99651.19;4998598;28;20422;-81
2021/03/28 03:18:42;;;;;;;10.93;3.08;;;7.30;62.10;;;6.22;52.56;99650.56;4991797;28;20419;-81
2021/03/28 03:21:54;;;;;;;11.27;3.22;;;7.30;61.20;;;6.26;52.49;99651.84;4999091;28;20410;-81
2021/03/28 03:24:52;;;;;;;10.80;3.38;;;7.30;61.20;;;6.31;52.41;99654.00;4998428;28;20461;-80
2021/03/28 03:27:41;;;;;;;13.30;4.07;;;7.40;60.80;;;6.39;51.92;99662.66;4997376;28;20414;-80
2021/03/28 03:30:45;;;;;;;10.25;3.30;;;7.40;60.60;;;6.21;52.81;99652.34;4997889;28;20418;-80
2021/03/28 03:34:09;;;;;;;9.32;3.15;;;7.30;61.00;;;6.23;52.54;99652.19;4979606;28;20445;-81
2021/03/28 03:37:01;;;;;;;11.55;3.20;;;7.30;60.90;;;6.21;52.49;99647.09;4997773;28;20406;-81
2021/03/28 03:39:54;;;;;;;11.90;3.22;;;7.30;61.00;;;6.09;53.07;99660.78;4998164;28;20504;-81
2021/03/28 03:42:49;;;;;;;10.88;3.30;;;7.20;61.10;;;6.16;52.71;99662.53;4999040;28;20399;-80
2021/03/28 03:46:03;;;;;;;16.73;3.42;;;7.20;61.40;;;6.14;52.87;99661.09;4998254;28;20407;-80
2021/03/28 03:49:06;;;;;;;7.38;3.05;;;7.20;61.20;;;6.14;52.70;99659.28;4935288;28;20442;-80
2021/03/28 03:52:10;;;;;;;11.98;3.30;;;7.20;61.20;;;6.12;52.72;99673.56;4997363;28;20446;-81
2021/03/28 03:54:55;;;;;;;9.50;3.45;;;7.20;61.20;;;5.94;53.21;99667.69;4998516;28;20442;-80
2021/03/28 03:57:38;;;;;;;13.63;3.45;;;7.10;61.40;;;5.97;53.07;99669.97;4998310;28;20422;-81
2021/03/28 04:00:21;;;;;;;10.80;3.28;;;7.00;61.80;;;5.83;53.43;99671.41;4998129;28;20509;-81
2021/03/28 04:03:05;;;;;;;13.13;3.47;;;6.90;62.00;;;5.79;53.38;99672.72;5001634;28;20419;-81
2021/03/28 04:05:57;;;;;;;13.20;3.22;;;6.80;62.40;;;5.86;53.46;99672.91;4998978;28;20423;-80
2021/03/28 04:09:08;;;;;;;9.32;3.40;;;6.90;62.10;;;5.83;53.49;99674.88;4998845;28;20693;-81
2021/03/28 04:12:17;;;;;;;9.85;3.47;;;6.90;62.10;;;5.74;53.56;99673.22;4998346;28;20460;-80
2021/03/28 04:15:16;;;;;;;8.07;3.17;;;6.90;62.20;;;5.83;53.64;99682.75;4999430;28;20502;-80
2021/03/28 04:18:12;;;;;;;11.53;3.47;;;6.90;62.30;;;5.83;53.47;99672.25;4974673;28;20499;-80
2021/03/28 04:20:50;;;;;;;9.93;3.30;;;7.00;62.20;;;5.78;53.63;99677.19;4999546;28;20743;-80
2021/03/28 04:23:40;;;;;;;10.55;3.33;;;6.90;62.30;;;5.75;53.73;99682.75;5000334;28;20476;-81
2021/03/28 04:26:25;;;;;;;10.23;3.50;;;6.80;62.50;;;5.61;54.17;99680.78;5000937;28;20411;-81
2021/03/28 04:28:57;;;;;;;10.15;3.00;;;6.70;62.90;;;5.58;54.30;99685.53;5004086;28;20422;-80
2021/03/28 04:32:16;;;;;;;11.02;3.35;;;6.60;63.10;;;5.55;54.36;99691.13;5010733;28;20438;-81
2021/03/28 04:35:32;;;;;;;12.95;3.50;;;6.60;63.30;;;5.58;54.18;99686.34;5010631;28;20434;-79
2021/03/28 04:38:22;;;;;;;16.52;5.38;;;6.70;63.30;;;5.55;54.23;99688.50;4965468;28;20443;-81
2021/03/28 04:41:39;;;;;;;12.75;4.10;;;6.70;63.10;;;5.42;54.64;99678.44;4997422;28;20417;-79
2021/03/28 04:45:08;;;;;;;14.27;4.90;;;6.60;63.20;;;5.47;54.61;99683.22;4998151;28;20422;-81
2021/03/28 04:48:38;;;;;;;11.93;4.10;;;6.50;63.60;;;5.61;54.26;99690.47;4920150;28;20425;-81
2021/03/28 04:51:54;;;;;;;9.30;3.00;;;6.60;63.40;;;5.73;53.90;99681.25;4918242;29;20440;-80
2021/03/28 04:55:17;;;;;;;15.63;4.30;;;6.80;63.00;;;5.86;53.67;99693.94;4917137;29;20544;-80
2021/03/28 04:58:20;;;;;;;10.52;3.65;;;6.80;62.50;;;5.72;54.16;99687.50;4963757;28;20910;-80
2021/03/28 05:01:23;;;;;;;11.05;3.25;;;6.80;62.50;;;5.92;53.31;99686.25;4978262;28;20419;-81
2021/03/28 05:04:32;;;;;;;12.77;3.95;;;6.90;62.50;;;6.06;52.89;99692.63;5001486;28;20422;-80
2021/03/28 05:08:10;;;;;;;10.55;3.40;;;7.00;62.00;;;5.82;53.94;99689.00;4931772;28;20527;-81
2021/03/28 05:11:25;;;;;;;13.97;3.43;;;7.00;62.30;;;5.69;54.80;99696.56;5001689;28;20442;-81
2021/03/28 05:14:57;;;;;;;12.45;3.85;;;6.80;63.40;;;5.68;54.71;99700.16;5014000;28;20510;-81
2021/03/28 05:18:22;;;;;;;15.30;4.25;;;6.80;63.50;;;5.66;54.94;99701.28;5001918;28;20446;-80
2021/03/28 05:21:31;;;;;;;10.38;3.40;;;6.80;63.90;;;5.81;54.38;99703.13;5019218;28;20780;-85
2021/03/28 05:24:46;;;;;;;10.38;3.13;;;6.90;63.60;;;5.86;54.17;99700.03;4966503;28;20441;-82
2021/03/28 05:28:13;;;;;;;12.77;3.65;;;6.90;63.10;;;5.96;54.17;99698.06;4969399;28;20480;-81
2021/03/28 05:31:45;;;;;;;10.20;3.60;;;7.00;63.10;;;5.97;54.36;99696.25;4923447;29;20414;-82
2021/03/28 05:35:11;;;;;;;14.48;3.63;;;7.00;63.10;;;5.97;54.35;99701.50;4999817;28;20805;-82
2021/03/28 05:38:13;;;;;;;12.48;3.22;;;7.00;63.10;;;6.00;54.30;99703.81;4982988;28;20430;-82
2021/03/28 05:41:01;;;;;;;9.77;3.15;;;7.10;63.00;;;6.02;54.08;99704.47;4997734;28;20479;-81
2021/03/28 05:44:22;;;;;;;12.60;3.47;;;7.10;62.90;;;6.17;53.93;99700.19;4997636;28;20998;-84
2021/03/28 05:47:16;;;;;;;9.13;3.45;;;7.10;63.10;;;5.99;54.33;99705.63;4999495;28;20419;-83
2021/03/28 05:50:00;;;;;;;14.60;4.03;;;7.20;63.00;;;5.96;54.61;99719.09;4998643;28;20764;-83
2021/03/28 05:53:25;;;;;;;13.23;3.60;;;7.10;63.60;;;5.96;54.97;99713.84;4997735;28;20505;-83
2021/03/28 05:56:51;;;;;;;15.50;3.90;;;7.00;64.20;;;5.99;54.93;99712.69;4997406;28;20486;-84
2021/03/28 05:59:57;;;;;;;11.48;3.53;;;7.00;64.00;;;6.22;54.06;99726.81;4982325;28;20430;-84
2021/03/28 06:03:13;;;;;;;10.98;3.80;;;7.20;63.30;;;6.14;54.11;99727.66;5004190;28;20426;-84
2021/03/28 06:06:49;;;;;;;12.15;3.33;;;7.20;62.80;;;6.09;54.39;99727.28;5004472;28;20414;-84
2021/03/28 06:10:04;;;;;;;15.82;3.75;;;7.20;63.10;;;6.12;54.35;99723.53;4997032;28;20529;-81
2021/03/28 06:13:18;;;;;;;15.48;3.58;;;7.20;63.30;;;6.14;54.09;99729.44;4984972;28;20461;-79
2021/03/28 06:16:10;;;;;;;11.70;3.30;;;7.20;63.10;;;6.12;53.92;99726.97;4951577;28;20437;-83
2021/03/28 06:19:24;;;;;;;11.97;3.70;;;7.20;62.70;;;6.12;53.61;99721.72;5000796;28;20510;-82
2021/03/28 06:22:56;;;;;;;12.15;3.42;;;7.20;62.60;;;6.19;53.65;99727.13;5000789;28;20399;-82
2021/03/28 06:26:17;;;;;;;12.02;3.30;;;7.20;62.50;;;6.42;53.41;99733.34;5004360;28;20436;-80
2021/03/28 06:44:24;;;;;;;9.80;3.20;;;7.60;62.10;;;6.70;52.08;99743.50;5101704;27;20401;-82
2021/03/28 06:51:14;;;;;;;15.43;3.67;;;7.80;60.60;;;6.99;51.49;99741.13;5151352;27;20412;-81
2021/03/28 06:54:58;;;;;;;9.68;3.63;;;8.00;60.00;;;7.29;50.88;99752.69;5151486;27;20418;-82
2021/03/28 06:58:24;;;;;;;10.97;3.63;;;8.20;59.70;;;7.51;50.15;99745.81;5150830;27;20481;-81
2021/03/28 07:01:59;;;;;;;10.33;3.00;;;8.40;58.80;;;7.58;49.66;99741.50;5149975;27;20478;-81
2021/03/28 07:05:05;;;;;;;11.27;3.77;;;8.50;58.10;;;7.83;48.94;99745.59;5049954;28;20419;-80
2021/03/28 07:08:14;;;;;;;9.88;3.00;;;8.70;57.80;;;7.87;48.97;99741.63;5122017;27;20406;-81
2021/03/28 07:11:10;;;;;;;10.87;2.97;;;8.80;57.30;;;7.94;48.78;99731.19;5151324;27;20448;-81
2021/03/28 07:14:52;;;;;;;9.70;3.30;;;8.90;57.10;;;8.16;48.33;99738.28;5150333;27;20492;-81
2021/03/28 07:18:16;;;;;;;14.43;3.22;;;9.10;56.80;;;8.31;48.09;99733.06;5151560;27;20505;-81
2021/03/28 07:21:18;;;;;;;10.48;3.22;;;9.20;56.50;;;8.39;47.81;99730.34;5143693;27;20835;-79
2021/03/28 07:24:41;;;;;;;10.43;3.35;;;9.40;56.00;;;8.56;47.57;99733.66;5104593;27;20474;-81
2021/03/28 07:27:50;;;;;;;11.52;3.33;;;9.40;56.10;;;8.59;47.44;99744.66;5145694;27;20442;-80
2021/03/28 07:30:53;;;;;;;9.85;3.60;;;9.50;55.70;;;8.81;46.97;99741.13;5144665;27;20481;-83
2021/03/28 07:34:06;;;;;;;11.05;3.60;;;9.60;55.50;;;8.94;46.57;99756.34;5144413;27;20777;-82
2021/03/28 07:37:02;;;;;;;11.82;3.30;;;9.90;54.90;;;9.02;46.41;99758.09;5144570;27;20450;-84
2021/03/28 07:40:08;;;;;;;12.60;3.38;;;9.90;54.70;;;9.12;46.41;99753.31;5122437;27;20422;-85
2021/03/28 07:43:15;;;;;;;11.43;3.42;;;10.00;54.60;;;9.40;44.98;99764.06;5124789;27;20839;-82
2021/03/28 07:46:22;;;;;;;9.27;3.35;;;10.30;53.60;;;9.54;44.95;99774.59;5139055;27;20477;-81
2021/03/28 07:49:47;;;;;;;10.17;3.40;;;10.40;53.10;;;9.67;44.83;99760.72;5134519;27;20424;-80
2021/03/28 07:52:37;;;;;;;12.40;3.20;;;10.50;52.90;;;9.92;44.26;99767.25;5112878;27;20421;-79
2021/03/28 07:55:21;;;;;;;13.55;3.33;;;10.70;52.50;;;10.40;43.05;99764.88;5143925;27;20476;-82
2021/03/28 07:58:40;;;;;;;10.90;3.00;;;11.10;51.40;;;10.12;43.57;99771.94;5126331;27;20462;-82
2021/03/28 08:01:39;;;;;;;11.75;3.20;;;11.00;51.20;;;10.05;43.68;99772.72;5140254;27;20418;-81
2021/03/28 08:04:56;;;;;;;9.88;2.88;;;10.90;51.40;;;10.22;43.42;99778.59;5150391;27;20410;-81
2021/03/28 08:07:55;;;;;;;10.90;3.28;;;11.10;51.50;;;10.43;43.02;99791.81;5136393;27;20406;-80
2021/03/28 08:10:46;;;;;;;13.75;3.35;;;11.20;51.10;;;10.26;43.51;99798.38;5149164;27;20493;-84
2021/03/28 08:14:16;;;;;;;9.20;2.95;;;11.20;51.20;;;9.92;44.19;99803.50;5154634;27;20465;-81
2021/03/28 08:17:11;;;;;;;10.85;3.20;;;10.90;51.30;;;9.75;44.58;99810.03;5130022;27;20508;-81
2021/03/28 08:20:31;;;;;;;12.15;3.10;;;10.70;52.30;;;9.85;44.47;99813.22;5126343;27;20520;-83
2021/03/28 08:23:26;;;;;;;10.20;3.00;;;10.70;52.30;;;9.74;44.57;99814.50;5094729;27;20472;-80
2021/03/28 08:26:28;;;;;;;12.18;3.03;;;10.70;52.30;;;9.77;44.67;99816.78;5150536;27;20457;-81
2021/03/28 08:29:33;;;;;;;13.35;3.67;;;10.60;52.50;;;9.48;45.62;99819.44;5152680;27;20441;-81
2021/03/28 08:32:25;;;;;;;14.38;3.40;;;10.50;53.10;;;9.59;45.38;99825.09;5146167;27;20523;-81
2021/03/28 08:35:38;;;;;;;15.25;3.42;;;10.50;53.40;;;9.75;44.61;99832.00;5145831;27;20530;-82
2021/03/28 08:39:04;;;;;;;12.20;3.30;;;10.60;52.80;;;9.95;44.39;99826.94;5139291;27;20443;-82
2021/03/28 08:41:57;;;;;;;10.88;3.20;;;10.80;52.40;;;10.10;44.02;99825.06;5084198;28;20449;-82
2021/03/28 08:45:19;;;;;;;15.73;3.72;;;11.00;51.90;;;10.29;43.53;99821.00;5020426;28;20438;-82
2021/03/28 08:48:22;;;;;;;14.50;3.75;;;11.10;51.40;;;10.23;43.39;99827.84;5033434;28;20808;-82
2021/03/28 08:51:27;;;;;;;11.27;3.38;;;11.10;51.00;;;10.35;42.96;99828.19;5025082;28;20526;-82
2021/03/28 08:54:19;;;;;;;11.00;3.03;;;11.20;50.70;;;10.32;43.29;99818.78;5023472;28;20478;-82
2021/03/28 08:57:30;;;;;;;9.07;2.80;;;11.30;51.00;;;10.20;42.72;99824.78;5025556;28;20536;-81
2021/03/28 09:00:19;;;;;;;14.98;2.97;;;11.20;50.40;;;9.92;43.18;99822.81;5025559;28;20428;-83
2021/03/28 09:03:07;;;;;;;8.88;2.70;;;10.90;50.40;;;10.01;42.91;99820.88;5024716;28;20401;-81
2021/03/28 09:05:49;;;;;;;12.77;3.13;;;10.90;50.40;;;10.07;42.66;99813.00;5023529;28;20462;-82
2021/03/28 09:08:33;;;;;;;11.50;2.88;;;10.90;50.30;;;9.98;42.84;99800.09;5024731;28;20428;-82
2021/03/28 09:11:44;;;;;;;9.02;3.00;;;10.90;50.20;;;10.30;42.16;99801.47;5111733;28;20433;-82
2021/03/28 09:14:57;;;;;;;10.65;2.75;;;11.10;50.30;;;10.61;40.54;99803.75;5108665;28;20512;-79
2021/03/28 09:17:38;;;;;;;9.60;2.70;;;11.40;48.40;;;10.72;38.08;99801.41;5024213;28;20479;-81
2021/03/28 09:20:29;;;;;;;7.28;2.50;;;11.60;45.40;;;10.91;37.67;99801.72;5027103;28;20516;-83
2021/03/28 09:23:29;;;;;;;11.23;2.60;;;11.80;44.80;;;11.01;37.54;99799.56;5098321;28;20515;-82
2021/03/28 09:26:03;;;;;;;7.70;2.08;;;11.90;44.60;;;10.90;35.28;99798.25;5024338;28;20466;-83
2021/03/28 09:29:17;;;;;;;9.35;2.60;;;11.90;42.20;;;10.80;36.51;99797.81;5025708;28;20499;-79
2021/03/28 09:31:59;;;;;;;6.15;2.40;;;11.70;42.90;;;10.76;36.23;99796.53;5027840;28;20454;-82
2021/03/28 09:34:51;;;;;;;10.02;2.97;;;11.70;43.20;;;10.89;34.76;99798.47;5026176;28;20486;-83
2021/03/28 09:37:26;;;;;;;8.40;2.38;;;11.80;41.60;;;11.00;35.22;99790.78;5023985;28;20561;-81
2021/03/28 09:40:20;;;;;;;7.73;2.33;;;11.80;41.90;;;11.11;35.16;99792.09;5090822;28;20468;-82
2021/03/28 09:43:30;;;;;;;9.68;2.60;;;11.90;41.60;;;11.11;34.55;99802.69;5145576;28;20476;-81
2021/03/28 09:46:26;;;;;;;8.47;2.80;;;12.10;41.00;;;11.03;34.93;99795.72;5068822;28;20408;-81
2021/03/28 09:49:33;;;;;;;10.88;2.60;;;11.80;41.30;;;11.37;35.75;99794.03;5150753;27;20465;-81
2021/03/28 09:52:52;;;;;;;6.13;2.08;;;12.10;42.60;;;11.23;33.66;99786.03;5155851;27;20488;-79
2021/03/28 09:55:44;;;;;;;8.85;2.72;;;12.30;39.40;;;11.12;35.90;99783.94;5155139;27;20517;-81
2021/03/28 09:58:53;;;;;;;7.05;2.38;;;11.90;42.40;;;11.14;36.90;99773.13;5154311;27;20493;-81
2021/03/28 10:01:39;;;;;;;10.30;2.35;;;12.00;43.50;;;11.40;36.50;99775.91;5151268;27;20556;-82
2021/03/28 10:04:21;;;;;;;7.65;2.40;;;12.20;43.20;;;11.51;35.87;99762.06;5147543;27;20453;-78
2021/03/28 10:06:59;;;;;;;10.05;2.83;;;12.30;42.20;;;11.66;36.05;99767.22;5149248;27;21042;-81
2021/03/28 10:09:57;;;;;;;10.15;2.67;;;12.50;42.60;;;11.83;35.75;99763.22;5148984;27;20897;-83
2021/03/28 10:12:36;;;;;;;8.38;2.80;;;12.60;42.20;;;12.07;35.25;99759.19;5144934;27;20469;-83
2021/03/28 10:15:14;;;;;;;8.17;2.33;;;12.80;42.00;;;12.01;34.99;99758.16;5145904;27;20421;-81
2021/03/28 10:17:46;;;;;;;9.18;2.88;;;12.90;41.40;;;12.32;34.52;99764.72;5145992;27;20453;-83
2021/03/28 10:20:53;;;;;;;8.90;2.90;;;13.00;41.00;;;12.20;34.12;99758.38;5147950;27;20747;-82
2021/03/28 10:23:36;;;;;;;9.90;2.60;;;13.10;40.10;;;12.30;33.85;99756.16;5147596;27;20453;-83
2021/03/28 10:26:29;;;;;;;8.35;2.50;;;13.10;40.30;;;12.52;33.33;99759.41;5148695;27;20426;-83
2021/03/28 10:29:29;;;;;;;8.65;2.53;;;13.20;39.90;;;12.74;32.96;99752.84;5158720;27;20422;-84
2021/03/28 10:32:10;;;;;;;10.30;2.63;;;13.40;39.00;;;12.90;32.65;99752.41;5159145;27;20407;-83
2021/03/28 10:35:34;;;;;;;9.93;2.90;;;13.60;39.00;;;13.06;32.30;99743.16;5135527;27;20421;-83
2021/03/28 10:38:35;;;;;;;8.90;2.40;;;13.80;38.70;;;12.96;32.43;99745.44;5062331;28;20858;-84
2021/03/28 10:41:35;;;;;;;7.10;2.15;;;13.80;38.50;;;12.95;32.62;99754.44;5060395;28;20413;-83
2021/03/28 10:44:40;;;;;;;8.27;2.72;;;13.80;38.50;;;13.01;32.20;99737.63;5146354;27;20881;-83
2021/03/28 10:47:59;;;;;;;7.57;2.60;;;13.80;38.50;;;12.88;32.89;99743.81;5125925;27;20494;-83
2021/03/28 10:51:16;;;;;;;7.85;2.47;;;13.70;38.90;;;12.83;32.57;99730.34;5083027;27;20410;-82
2021/03/28 10:54:35;;;;;;;7.57;2.22;;;13.80;38.30;;;12.97;33.14;99731.94;5125851;27;20668;-82
2021/03/28 10:58:10;;;;;;;7.50;2.63;;;13.80;39.20;;;13.13;31.78;99720.06;5144051;27;20407;-81
2021/03/28 11:01:52;;;;;;;9.27;2.58;;;13.90;38.00;;;13.33;31.83;99725.28;5151858;27;20413;-81
2021/03/28 11:05:02;;;;;;;9.45;3.00;;;14.00;37.70;;;13.28;32.04;99714.47;5050511;28;20425;-81
2021/03/28 11:07:56;;;;;;;7.20;2.90;;;14.10;37.90;;;13.39;32.00;99719.94;5063358;27;20865;-82
2021/03/28 11:11:05;;;;;;;7.25;2.10;;;14.10;37.80;;;13.23;31.40;99709.78;5127920;27;20415;-82
2021/03/28 11:14:12;;;;;;;7.50;2.65;;;14.20;37.00;;;13.15;31.57;99716.19;5143232;27;20415;-82
2021/03/28 11:17:12;;;;;;;11.48;2.75;;;14.10;37.20;;;12.61;32.61;99708.53;5142916;27;20423;-82
2021/03/28 11:20:18;;;;;;;8.70;2.65;;;13.60;38.10;;;12.83;32.18;99700.28;5140934;27;20421;-81
2021/03/28 11:22:58;;;;;;;10.40;3.20;;;13.60;38.40;;;13.04;32.46;99700.00;5140968;27;20414;-81
2021/03/28 11:25:27;;;;;;;7.35;2.40;;;13.80;38.50;;;13.21;32.25;99703.06;5141771;27;20434;-82
2021/03/28 11:28:48;;;;;;;7.13;2.30;;;14.00;38.10;;;13.40;31.80;99691.50;5141694;27;20657;-82
2021/03/28 11:31:33;;;;;;;6.47;2.70;;;14.20;37.70;;;13.47;31.10;99689.59;5136409;27;20473;-82
2021/03/28 11:34:12;;;;;;;7.47;2.50;;;14.30;36.80;;;13.64;31.04;99688.09;5142300;27;20491;-82
2021/03/28 11:36:55;;;;;;;7.43;2.85;;;14.40;37.20;;;13.31;32.00;99698.06;5150985;27;20382;-81
2021/03/28 11:39:24;;;;;;;8.35;2.67;;;14.20;37.60;;;13.26;32.76;99689.94;5152094;27;20407;-81
2021/03/28 11:42:23;;;;;;;9.27;2.70;;;14.10;38.50;;;13.47;32.36;99685.09;5152986;27;20403;-81
2021/03/28 11:45:35;;;;;;;8.95;2.67;;;14.20;38.50;;;13.65;32.22;99680.91;5089185;27;20429;-82
2021/03/28 11:48:06;;;;;;;10.73;2.70;;;14.40;38.10;;;13.80;31.99;99684.09;5129589;27;20836;-81
2021/03/28 11:50:39;;;;;;;9.97;2.90;;;14.60;37.90;;;13.56;31.89;99678.50;5152436;27;20458;-79
2021/03/28 11:53:20;;;;;;;8.15;2.60;;;14.60;37.50;;;13.18;32.90;99675.84;5141155;27;20835;-81
2021/03/28 11:55:52;;;;;;;8.57;2.88;;;14.30;38.30;;;13.34;33.01;99669.22;5141827;27;20419;-81
2021/03/28 11:59:06;;;;;;;9.52;2.85;;;14.10;39.20;;;13.50;32.12;99666.06;5141628;27;20832;-81
2021/03/28 12:02:19;;;;;;;9.43;2.78;;;14.30;38.00;;;13.69;32.07;99660.81;5136228;27;20426;-82
2021/03/28 12:04:52;;;;;;;11.95;3.08;;;14.50;38.00;;;13.80;31.52;99644.97;5141874;27;20412;-82
2021/03/28 12:07:29;;;;;;;12.25;3.10;;;14.60;37.30;;;14.05;31.25;99646.84;5142186;27;20421;-82
2021/03/28 12:10:33;;;;;;;11.77;2.60;;;14.70;37.20;;;14.18;31.00;99647.53;5140718;27;20418;-81
2021/03/28 12:13:46;;;;;;;8.88;2.60;;;14.90;37.20;;;14.17;31.23;99639.75;5142729;27;20410;-82
2021/03/28 12:16:13;;;;;;;14.25;3.00;;;15.00;36.80;;;14.42;30.73;99637.91;5129014;27;20417;-82
2021/03/28 12:18:58;;;;;;;11.80;2.65;;;15.10;36.60;;;14.28;30.44;99626.50;5143837;27;20429;-82
2021/03/28 12:22:00;;;;;;;11.50;2.67;;;15.10;36.00;;;14.36;30.19;99614.75;5125886;27;20414;-82
2021/03/28 12:24:32;;;;;;;7.75;2.22;;;15.10;35.80;;;14.44;30.03;99619.84;5143837;27;20394;-83
2021/03/28 12:27:20;;;;;;;7.45;2.67;;;15.20;35.70;;;14.42;30.20;99629.09;5142796;27;20406;-81
2021/03/28 12:29:49;;;;;;;11.18;3.42;;;15.20;35.90;;;14.44;30.32;99633.16;5142471;27;20398;-82
2021/03/28 12:32:53;;;;;;;10.80;3.85;;;15.20;35.90;;;14.53;30.10;99629.16;5141797;27;20474;-83
2021/03/28 12:35:57;;;;;;;8.05;2.92;;;15.30;35.70;;;14.61;29.61;99633.41;5140343;27;20517;-82
2021/03/28 12:38:52;;;;;;;7.63;2.25;;;15.40;35.30;;;14.24;30.69;99629.84;5141760;27;20441;-84
2021/03/28 12:41:34;;;;;;;9.95;3.00;;;15.10;35.90;;;13.78;31.67;99639.06;5141188;27;20409;-82
2021/03/28 12:44:31;;;;;;;9.32;2.70;;;14.60;37.50;;;13.85;31.11;99625.69;5141580;27;20441;-83
2021/03/28 12:47:16;;;;;;;6.93;2.55;;;14.60;36.90;;;13.97;30.93;99617.81;5141813;27;20771;-82
2021/03/28 12:49:48;;;;;;;6.00;2.17;;;14.80;36.60;;;14.11;30.57;99611.34;5135355;27;20406;-81